sensor_id;sensor_type;location;lat;lon;timestamp;temperature;humidity
3190;DHT22;1606;51.946;10.558;2022-09-09T00:01:06;19.10;99.90
3190;DHT22;1606;51.946;10.558;2022-09-09T00:03:42;18.90;99.90
3190;DHT22;1606;51.946;10.558;2022-09-09T00:06:18;18.80;99.90
3190;DHT22;1606;51.946;10.558;2022-09-09T00:08:55;18.80;99.90
3190;DHT22;1606;51.946;10.558;2022-09-09T00:11:31;18.90;99.90
3190;DHT22;1606;51.946;10.558;2022-09-09T00:14:11;18.80;99.90
3190;DHT22;1606;51.946;10.558;2022-09-09T00:16:45;18.90;99.90
3190;DHT22;1606;51.946;10.558;2022-09-09T00:19:20;18.90;99.90
3190;DHT22;1606;51.946;10.558;2022-09-09T00:21:56;19.00;99.90
3190;DHT22;1606;51.946;10.558;2022-09-09T00:24:32;19.00;99.90
3190;DHT22;1606;51.946;10.558;2022-09-09T00:27:07;19.00;99.90
3190;DHT22;1606;51.946;10.558;2022-09-09T00:29:43;19.10;99.90
3190;DHT22;1606;51.946;10.558;2022-09-09T00:32:13;19.10;99.90
3190;DHT22;1606;51.946;10.558;2022-09-09T00:34:46;19.10;99.90
3190;DHT22;1606;51.946;10.558;2022-09-09T00:37:15;19.10;99.90
3190;DHT22;1606;51.946;10.558;2022-09-09T00:39:45;18.90;99.90
3190;DHT22;1606;51.946;10.558;2022-09-09T00:42:18;18.90;99.90
3190;DHT22;1606;51.946;10.558;2022-09-09T00:45:01;18.80;99.90
3190;DHT22;1606;51.946;10.558;2022-09-09T00:47:39;18.80;99.90
3190;DHT22;1606;51.946;10.558;2022-09-09T00:50:28;18.90;99.90
3190;DHT22;1606;51.946;10.558;2022-09-09T00:53:09;19.10;99.90
3190;DHT22;1606;51.946;10.558;2022-09-09T00:55:46;19.10;99.90
3190;DHT22;1606;51.946;10.558;2022-09-09T00:58:19;18.90;99.90
3190;DHT22;1606;51.946;10.558;2022-09-09T01:00:51;18.90;99.90
3190;DHT22;1606;51.946;10.558;2022-09-09T01:03:25;19.00;99.90
3190;DHT22;1606;51.946;10.558;2022-09-09T01:06:02;19.00;99.90
3190;DHT22;1606;51.946;10.558;2022-09-09T01:08:50;18.90;99.90
3190;DHT22;1606;51.946;10.558;2022-09-09T01:11:22;18.80;99.90
3190;DHT22;1606;51.946;10.558;2022-09-09T01:14:00;18.80;99.90
3190;DHT22;1606;51.946;10.558;2022-09-09T01:16:30;18.80;99.90
3190;DHT22;1606;51.946;10.558;2022-09-09T01:19:00;18.80;99.90
3190;DHT22;1606;51.946;10.558;2022-09-09T01:21:35;18.90;99.90
3190;DHT22;1606;51.946;10.558;2022-09-09T01:24:20;18.90;99.90
3190;DHT22;1606;51.946;10.558;2022-09-09T01:26:52;18.90;99.90
3190;DHT22;1606;51.946;10.558;2022-09-09T01:29:22;18.80;99.90
3190;DHT22;1606;51.946;10.558;2022-09-09T01:31:55;18.90;99.90
3190;DHT22;1606;51.946;10.558;2022-09-09T01:34:25;18.90;99.90
3190;DHT22;1606;51.946;10.558;2022-09-09T01:36:58;19.00;99.90
3190;DHT22;1606;51.946;10.558;2022-09-09T01:39:27;19.00;99.90
3190;DHT22;1606;51.946;10.558;2022-09-09T01:41:57;19.00;99.90
3190;DHT22;1606;51.946;10.558;2022-09-09T01:44:25;19.10;99.90
3190;DHT22;1606;51.946;10.558;2022-09-09T01:46:54;19.10;99.90
3190;DHT22;1606;51.946;10.558;2022-09-09T01:49:22;19.10;99.90
3190;DHT22;1606;51.946;10.558;2022-09-09T01:51:53;19.20;99.90
3190;DHT22;1606;51.946;10.558;2022-09-09T01:54:23;19.00;99.90
3190;DHT22;1606;51.946;10.558;2022-09-09T01:57:01;19.10;99.90
3190;DHT22;1606;51.946;10.558;2022-09-09T01:59:45;18.90;99.90
3190;DHT22;1606;51.946;10.558;2022-09-09T02:02:18;19.00;99.90
3190;DHT22;1606;51.946;10.558;2022-09-09T02:04:48;19.10;99.90
3190;DHT22;1606;51.946;10.558;2022-09-09T02:07:31;19.10;99.90
3190;DHT22;1606;51.946;10.558;2022-09-09T02:10:09;19.20;99.90
3190;DHT22;1606;51.946;10.558;2022-09-09T02:12:41;19.20;99.90
3190;DHT22;1606;51.946;10.558;2022-09-09T02:15:17;19.10;99.90
3190;DHT22;1606;51.946;10.558;2022-09-09T02:17:50;18.90;99.90
3190;DHT22;1606;51.946;10.558;2022-09-09T02:20:20;18.80;99.90
3190;DHT22;1606;51.946;10.558;2022-09-09T02:22:50;18.70;99.90
3190;DHT22;1606;51.946;10.558;2022-09-09T02:25:21;18.60;99.90
3190;DHT22;1606;51.946;10.558;2022-09-09T02:27:51;18.60;99.90
3190;DHT22;1606;51.946;10.558;2022-09-09T02:30:19;18.50;99.90
3190;DHT22;1606;51.946;10.558;2022-09-09T02:32:50;18.60;99.90
3190;DHT22;1606;51.946;10.558;2022-09-09T02:35:24;18.60;99.90
3190;DHT22;1606;51.946;10.558;2022-09-09T02:37:55;18.50;99.90
3190;DHT22;1606;51.946;10.558;2022-09-09T02:40:25;18.30;99.90
3190;DHT22;1606;51.946;10.558;2022-09-09T02:42:55;18.40;99.90
3190;DHT22;1606;51.946;10.558;2022-09-09T02:45:25;18.30;99.90
3190;DHT22;1606;51.946;10.558;2022-09-09T02:47:59;18.40;99.90
3190;DHT22;1606;51.946;10.558;2022-09-09T02:50:32;18.60;99.90
3190;DHT22;1606;51.946;10.558;2022-09-09T02:53:07;18.50;99.90
3190;DHT22;1606;51.946;10.558;2022-09-09T02:55:41;18.50;99.90
3190;DHT22;1606;51.946;10.558;2022-09-09T02:58:17;18.40;99.90
3190;DHT22;1606;51.946;10.558;2022-09-09T03:00:47;18.30;99.90
3190;DHT22;1606;51.946;10.558;2022-09-09T03:03:16;18.10;99.90
3190;DHT22;1606;51.946;10.558;2022-09-09T03:05:46;18.10;99.90
3190;DHT22;1606;51.946;10.558;2022-09-09T03:08:14;17.90;99.90
3190;DHT22;1606;51.946;10.558;2022-09-09T03:10:42;17.80;99.90
3190;DHT22;1606;51.946;10.558;2022-09-09T03:13:10;17.80;99.90
3190;DHT22;1606;51.946;10.558;2022-09-09T03:15:40;17.80;99.90
3190;DHT22;1606;51.946;10.558;2022-09-09T03:18:08;17.70;99.90
3190;DHT22;1606;51.946;10.558;2022-09-09T03:20:36;17.50;99.90
3190;DHT22;1606;51.946;10.558;2022-09-09T03:23:04;17.50;99.90
3190;DHT22;1606;51.946;10.558;2022-09-09T03:25:32;17.60;99.90
3190;DHT22;1606;51.946;10.558;2022-09-09T03:28:00;17.70;99.90
3190;DHT22;1606;51.946;10.558;2022-09-09T03:30:28;17.90;99.90
3190;DHT22;1606;51.946;10.558;2022-09-09T03:32:57;17.90;99.90
3190;DHT22;1606;51.946;10.558;2022-09-09T03:35:25;17.90;99.90
3190;DHT22;1606;51.946;10.558;2022-09-09T03:37:53;17.80;99.90
3190;DHT22;1606;51.946;10.558;2022-09-09T03:40:21;18.00;99.90
3190;DHT22;1606;51.946;10.558;2022-09-09T03:42:49;18.00;99.90
3190;DHT22;1606;51.946;10.558;2022-09-09T03:45:17;18.00;99.90
3190;DHT22;1606;51.946;10.558;2022-09-09T03:47:44;17.90;99.90
3190;DHT22;1606;51.946;10.558;2022-09-09T03:50:13;17.80;99.90
3190;DHT22;1606;51.946;10.558;2022-09-09T03:52:41;17.80;99.90
3190;DHT22;1606;51.946;10.558;2022-09-09T03:55:10;17.70;99.90
3190;DHT22;1606;51.946;10.558;2022-09-09T03:57:37;17.80;99.90
3190;DHT22;1606;51.946;10.558;2022-09-09T04:00:07;17.70;99.90
3190;DHT22;1606;51.946;10.558;2022-09-09T04:02:35;17.70;99.90
3190;DHT22;1606;51.946;10.558;2022-09-09T04:05:03;17.80;99.90
3190;DHT22;1606;51.946;10.558;2022-09-09T04:07:34;17.80;99.90
3190;DHT22;1606;51.946;10.558;2022-09-09T04:10:02;17.60;99.90
3190;DHT22;1606;51.946;10.558;2022-09-09T04:12:30;17.60;99.90
3190;DHT22;1606;51.946;10.558;2022-09-09T04:14:58;17.70;99.90
3190;DHT22;1606;51.946;10.558;2022-09-09T04:17:28;17.60;99.90
3190;DHT22;1606;51.946;10.558;2022-09-09T04:19:56;17.50;99.90
3190;DHT22;1606;51.946;10.558;2022-09-09T04:22:24;17.50;99.90
3190;DHT22;1606;51.946;10.558;2022-09-09T04:24:53;17.70;99.90
3190;DHT22;1606;51.946;10.558;2022-09-09T04:27:21;17.80;99.90
3190;DHT22;1606;51.946;10.558;2022-09-09T04:29:49;17.80;99.90
3190;DHT22;1606;51.946;10.558;2022-09-09T04:32:17;17.80;99.90
3190;DHT22;1606;51.946;10.558;2022-09-09T04:34:44;18.00;99.90
3190;DHT22;1606;51.946;10.558;2022-09-09T04:37:14;18.10;99.90
3190;DHT22;1606;51.946;10.558;2022-09-09T04:39:41;18.20;99.90
3190;DHT22;1606;51.946;10.558;2022-09-09T04:42:11;18.30;99.90
3190;DHT22;1606;51.946;10.558;2022-09-09T04:44:39;18.50;99.90
3190;DHT22;1606;51.946;10.558;2022-09-09T04:47:08;18.60;99.90
3190;DHT22;1606;51.946;10.558;2022-09-09T04:49:36;18.60;99.90
3190;DHT22;1606;51.946;10.558;2022-09-09T04:52:04;18.70;99.90
3190;DHT22;1606;51.946;10.558;2022-09-09T04:54:32;18.70;99.90
3190;DHT22;1606;51.946;10.558;2022-09-09T04:57:00;18.60;99.90
3190;DHT22;1606;51.946;10.558;2022-09-09T04:59:29;18.60;99.90
3190;DHT22;1606;51.946;10.558;2022-09-09T05:01:57;18.70;99.90
3190;DHT22;1606;51.946;10.558;2022-09-09T05:04:27;18.70;99.90
3190;DHT22;1606;51.946;10.558;2022-09-09T05:06:56;18.70;99.90
3190;DHT22;1606;51.946;10.558;2022-09-09T05:09:24;18.60;99.90
3190;DHT22;1606;51.946;10.558;2022-09-09T05:11:51;18.50;99.90
3190;DHT22;1606;51.946;10.558;2022-09-09T05:14:19;18.60;99.90
3190;DHT22;1606;51.946;10.558;2022-09-09T05:16:48;18.70;99.90
3190;DHT22;1606;51.946;10.558;2022-09-09T05:19:16;18.70;99.90
3190;DHT22;1606;51.946;10.558;2022-09-09T05:21:45;18.80;99.90
3190;DHT22;1606;51.946;10.558;2022-09-09T05:24:13;18.80;99.90
3190;DHT22;1606;51.946;10.558;2022-09-09T05:26:41;18.80;99.90
3190;DHT22;1606;51.946;10.558;2022-09-09T05:29:09;18.80;99.90
3190;DHT22;1606;51.946;10.558;2022-09-09T05:31:37;18.60;99.90
3190;DHT22;1606;51.946;10.558;2022-09-09T05:34:06;18.70;99.90
3190;DHT22;1606;51.946;10.558;2022-09-09T05:36:34;18.90;99.90
3190;DHT22;1606;51.946;10.558;2022-09-09T05:39:02;18.90;99.90
3190;DHT22;1606;51.946;10.558;2022-09-09T05:41:30;19.00;99.90
3190;DHT22;1606;51.946;10.558;2022-09-09T05:43:58;19.10;99.90
3190;DHT22;1606;51.946;10.558;2022-09-09T05:46:27;19.40;99.90
3190;DHT22;1606;51.946;10.558;2022-09-09T05:48:55;19.30;99.90
3190;DHT22;1606;51.946;10.558;2022-09-09T05:51:27;19.40;99.90
3190;DHT22;1606;51.946;10.558;2022-09-09T05:53:56;19.40;99.90
3190;DHT22;1606;51.946;10.558;2022-09-09T05:56:26;19.30;99.90
3190;DHT22;1606;51.946;10.558;2022-09-09T05:58:55;19.30;99.90
3190;DHT22;1606;51.946;10.558;2022-09-09T06:01:24;19.50;99.90
3190;DHT22;1606;51.946;10.558;2022-09-09T06:03:53;19.50;99.90
3190;DHT22;1606;51.946;10.558;2022-09-09T06:06:22;19.10;99.90
3190;DHT22;1606;51.946;10.558;2022-09-09T06:08:52;19.10;99.90
3190;DHT22;1606;51.946;10.558;2022-09-09T06:11:22;19.30;99.90
3190;DHT22;1606;51.946;10.558;2022-09-09T06:13:51;19.50;99.90
3190;DHT22;1606;51.946;10.558;2022-09-09T06:16:21;19.60;99.90
3190;DHT22;1606;51.946;10.558;2022-09-09T06:18:51;19.50;99.90
3190;DHT22;1606;51.946;10.558;2022-09-09T06:21:21;19.50;99.90
3190;DHT22;1606;51.946;10.558;2022-09-09T06:23:49;19.70;99.90
3190;DHT22;1606;51.946;10.558;2022-09-09T06:26:20;19.80;99.90
3190;DHT22;1606;51.946;10.558;2022-09-09T06:28:49;19.90;99.90
3190;DHT22;1606;51.946;10.558;2022-09-09T06:31:20;19.90;99.90
3190;DHT22;1606;51.946;10.558;2022-09-09T06:33:55;19.70;99.90
3190;DHT22;1606;51.946;10.558;2022-09-09T06:36:25;19.70;99.90
3190;DHT22;1606;51.946;10.558;2022-09-09T06:38:53;19.70;99.90
3190;DHT22;1606;51.946;10.558;2022-09-09T06:41:24;19.80;99.90
3190;DHT22;1606;51.946;10.558;2022-09-09T06:43:52;19.80;99.90
3190;DHT22;1606;51.946;10.558;2022-09-09T06:46:22;19.90;99.90
3190;DHT22;1606;51.946;10.558;2022-09-09T06:48:54;19.80;99.90
3190;DHT22;1606;51.946;10.558;2022-09-09T06:51:25;19.70;99.90
3190;DHT22;1606;51.946;10.558;2022-09-09T06:53:55;19.70;99.90
3190;DHT22;1606;51.946;10.558;2022-09-09T06:56:25;19.70;99.90
3190;DHT22;1606;51.946;10.558;2022-09-09T06:58:56;19.90;99.90
3190;DHT22;1606;51.946;10.558;2022-09-09T07:01:26;19.90;99.90
3190;DHT22;1606;51.946;10.558;2022-09-09T07:03:56;19.80;99.90
3190;DHT22;1606;51.946;10.558;2022-09-09T07:06:27;19.80;99.90
3190;DHT22;1606;51.946;10.558;2022-09-09T07:08:56;19.90;99.90
3190;DHT22;1606;51.946;10.558;2022-09-09T07:11:28;20.10;99.90
3190;DHT22;1606;51.946;10.558;2022-09-09T07:13:57;20.00;99.90
3190;DHT22;1606;51.946;10.558;2022-09-09T07:16:26;20.00;99.90
3190;DHT22;1606;51.946;10.558;2022-09-09T07:18:55;19.90;99.90
3190;DHT22;1606;51.946;10.558;2022-09-09T07:21:25;20.10;99.90
3190;DHT22;1606;51.946;10.558;2022-09-09T07:23:54;20.10;99.90
3190;DHT22;1606;51.946;10.558;2022-09-09T07:26:23;20.10;99.90
3190;DHT22;1606;51.946;10.558;2022-09-09T07:28:53;20.10;99.90
3190;DHT22;1606;51.946;10.558;2022-09-09T07:31:23;20.10;99.90
3190;DHT22;1606;51.946;10.558;2022-09-09T07:33:52;20.30;99.90
3190;DHT22;1606;51.946;10.558;2022-09-09T07:36:22;20.50;99.90
3190;DHT22;1606;51.946;10.558;2022-09-09T07:38:52;20.30;99.90
3190;DHT22;1606;51.946;10.558;2022-09-09T07:41:22;20.30;99.90
3190;DHT22;1606;51.946;10.558;2022-09-09T07:43:53;20.40;99.90
3190;DHT22;1606;51.946;10.558;2022-09-09T07:46:23;20.30;99.90
3190;DHT22;1606;51.946;10.558;2022-09-09T07:48:52;20.30;99.90
3190;DHT22;1606;51.946;10.558;2022-09-09T07:51:24;20.20;99.90
3190;DHT22;1606;51.946;10.558;2022-09-09T07:53:53;20.40;99.90
3190;DHT22;1606;51.946;10.558;2022-09-09T07:56:21;20.50;99.90
3190;DHT22;1606;51.946;10.558;2022-09-09T07:58:50;20.30;99.90
3190;DHT22;1606;51.946;10.558;2022-09-09T08:01:22;20.30;99.90
3190;DHT22;1606;51.946;10.558;2022-09-09T08:03:56;20.40;99.90
3190;DHT22;1606;51.946;10.558;2022-09-09T08:06:26;20.50;99.90
3190;DHT22;1606;51.946;10.558;2022-09-09T08:08:55;20.60;99.90
3190;DHT22;1606;51.946;10.558;2022-09-09T08:11:25;20.80;99.90
3190;DHT22;1606;51.946;10.558;2022-09-09T08:13:53;20.70;99.90
3190;DHT22;1606;51.946;10.558;2022-09-09T08:16:31;20.70;99.90
3190;DHT22;1606;51.946;10.558;2022-09-09T08:18:59;20.90;99.90
3190;DHT22;1606;51.946;10.558;2022-09-09T08:21:28;20.90;99.90
3190;DHT22;1606;51.946;10.558;2022-09-09T08:23:57;20.80;99.90
3190;DHT22;1606;51.946;10.558;2022-09-09T08:26:27;20.70;99.90
3190;DHT22;1606;51.946;10.558;2022-09-09T08:28:56;20.80;99.90
3190;DHT22;1606;51.946;10.558;2022-09-09T08:31:26;21.00;99.90
3190;DHT22;1606;51.946;10.558;2022-09-09T08:33:56;21.10;99.90
3190;DHT22;1606;51.946;10.558;2022-09-09T08:36:27;21.40;99.90
3190;DHT22;1606;51.946;10.558;2022-09-09T08:38:57;21.40;99.90
3190;DHT22;1606;51.946;10.558;2022-09-09T08:41:35;21.50;99.90
3190;DHT22;1606;51.946;10.558;2022-09-09T08:44:10;21.60;99.90
3190;DHT22;1606;51.946;10.558;2022-09-09T08:46:46;21.50;99.90
3190;DHT22;1606;51.946;10.558;2022-09-09T08:49:37;21.50;99.90
3190;DHT22;1606;51.946;10.558;2022-09-09T08:52:13;21.50;99.90
3190;DHT22;1606;51.946;10.558;2022-09-09T08:54:46;21.50;99.90
3190;DHT22;1606;51.946;10.558;2022-09-09T08:57:20;21.50;99.90
3190;DHT22;1606;51.946;10.558;2022-09-09T08:59:50;21.60;99.90
3190;DHT22;1606;51.946;10.558;2022-09-09T09:02:22;21.80;99.90
3190;DHT22;1606;51.946;10.558;2022-09-09T09:05:05;21.70;99.90
3190;DHT22;1606;51.946;10.558;2022-09-09T09:07:46;21.80;99.90
3190;DHT22;1606;51.946;10.558;2022-09-09T09:10:25;22.10;99.90
3190;DHT22;1606;51.946;10.558;2022-09-09T09:13:15;22.00;99.90
3190;DHT22;1606;51.946;10.558;2022-09-09T09:15:49;21.90;99.90
3190;DHT22;1606;51.946;10.558;2022-09-09T09:18:17;22.00;99.90
3190;DHT22;1606;51.946;10.558;2022-09-09T09:20:57;22.00;99.90
3190;DHT22;1606;51.946;10.558;2022-09-09T09:23:33;21.80;99.90
3190;DHT22;1606;51.946;10.558;2022-09-09T09:26:09;22.10;99.90
3190;DHT22;1606;51.946;10.558;2022-09-09T09:28:39;22.30;99.90
3190;DHT22;1606;51.946;10.558;2022-09-09T09:31:09;22.40;99.90
3190;DHT22;1606;51.946;10.558;2022-09-09T09:33:44;22.30;99.90
3190;DHT22;1606;51.946;10.558;2022-09-09T09:36:14;22.40;99.90
3190;DHT22;1606;51.946;10.558;2022-09-09T09:38:53;22.40;99.90
3190;DHT22;1606;51.946;10.558;2022-09-09T09:41:42;22.20;99.90
3190;DHT22;1606;51.946;10.558;2022-09-09T09:44:22;22.20;99.90
3190;DHT22;1606;51.946;10.558;2022-09-09T09:46:51;22.70;99.90
3190;DHT22;1606;51.946;10.558;2022-09-09T09:49:19;23.00;99.90
3190;DHT22;1606;51.946;10.558;2022-09-09T09:51:48;23.10;99.90
3190;DHT22;1606;51.946;10.558;2022-09-09T09:54:22;23.20;99.90
3190;DHT22;1606;51.946;10.558;2022-09-09T09:56:52;23.50;99.90
3190;DHT22;1606;51.946;10.558;2022-09-09T09:59:33;23.70;99.90
3190;DHT22;1606;51.946;10.558;2022-09-09T10:02:17;23.70;99.30
3190;DHT22;1606;51.946;10.558;2022-09-09T10:04:46;23.60;99.40
3190;DHT22;1606;51.946;10.558;2022-09-09T10:07:20;23.80;98.80
3190;DHT22;1606;51.946;10.558;2022-09-09T10:09:54;23.90;98.30
3190;DHT22;1606;51.946;10.558;2022-09-09T10:12:31;24.10;97.80
3190;DHT22;1606;51.946;10.558;2022-09-09T10:15:11;23.90;98.00
3190;DHT22;1606;51.946;10.558;2022-09-09T10:17:54;23.90;98.50
3190;DHT22;1606;51.946;10.558;2022-09-09T10:20:34;23.90;98.30
3190;DHT22;1606;51.946;10.558;2022-09-09T10:23:26;23.90;97.90
3190;DHT22;1606;51.946;10.558;2022-09-09T10:26:16;24.00;98.00
3190;DHT22;1606;51.946;10.558;2022-09-09T10:29:07;23.90;97.70
3190;DHT22;1606;51.946;10.558;2022-09-09T10:31:45;23.90;98.20
3190;DHT22;1606;51.946;10.558;2022-09-09T10:34:27;23.70;98.60
3190;DHT22;1606;51.946;10.558;2022-09-09T10:37:03;23.90;98.10
3190;DHT22;1606;51.946;10.558;2022-09-09T10:39:37;24.00;98.00
3190;DHT22;1606;51.946;10.558;2022-09-09T10:42:11;23.90;98.10
3190;DHT22;1606;51.946;10.558;2022-09-09T10:44:53;23.60;98.40
3190;DHT22;1606;51.946;10.558;2022-09-09T10:47:44;23.40;99.00
3190;DHT22;1606;51.946;10.558;2022-09-09T10:50:45;23.70;98.70
3190;DHT22;1606;51.946;10.558;2022-09-09T10:53:37;23.70;98.80
3190;DHT22;1606;51.946;10.558;2022-09-09T10:56:11;23.70;99.10
3190;DHT22;1606;51.946;10.558;2022-09-09T10:58:44;23.90;98.10
3190;DHT22;1606;51.946;10.558;2022-09-09T11:01:18;23.80;97.50
3190;DHT22;1606;51.946;10.558;2022-09-09T11:03:53;23.80;97.70
3190;DHT22;1606;51.946;10.558;2022-09-09T11:06:28;23.70;97.90
3190;DHT22;1606;51.946;10.558;2022-09-09T11:08:57;24.00;98.60
3190;DHT22;1606;51.946;10.558;2022-09-09T11:11:31;24.30;97.30
3190;DHT22;1606;51.946;10.558;2022-09-09T11:14:03;24.50;96.00
3190;DHT22;1606;51.946;10.558;2022-09-09T11:16:35;24.10;95.30
3190;DHT22;1606;51.946;10.558;2022-09-09T11:19:14;24.30;95.20
3190;DHT22;1606;51.946;10.558;2022-09-09T11:21:46;24.50;94.50
3190;DHT22;1606;51.946;10.558;2022-09-09T11:24:16;24.60;94.70
3190;DHT22;1606;51.946;10.558;2022-09-09T11:26:51;24.50;94.10
3190;DHT22;1606;51.946;10.558;2022-09-09T11:29:47;24.50;94.20
3190;DHT22;1606;51.946;10.558;2022-09-09T11:35:30;24.70;93.50
3190;DHT22;1606;51.946;10.558;2022-09-09T11:38:19;25.00;93.50
3190;DHT22;1606;51.946;10.558;2022-09-09T11:40:55;25.20;92.30
3190;DHT22;1606;51.946;10.558;2022-09-09T11:43:28;25.50;92.20
3190;DHT22;1606;51.946;10.558;2022-09-09T11:45:59;25.60;91.60
3190;DHT22;1606;51.946;10.558;2022-09-09T11:48:32;25.70;91.70
3190;DHT22;1606;51.946;10.558;2022-09-09T11:51:06;25.60;90.80
3190;DHT22;1606;51.946;10.558;2022-09-09T11:53:50;25.30;91.30
3190;DHT22;1606;51.946;10.558;2022-09-09T11:56:27;24.90;91.40
3190;DHT22;1606;51.946;10.558;2022-09-09T11:59:03;24.90;91.60
3190;DHT22;1606;51.946;10.558;2022-09-09T12:01:36;24.80;91.70
3190;DHT22;1606;51.946;10.558;2022-09-09T12:04:17;24.80;92.00
3190;DHT22;1606;51.946;10.558;2022-09-09T12:06:51;25.20;92.00
3190;DHT22;1606;51.946;10.558;2022-09-09T12:09:23;25.10;91.20
3190;DHT22;1606;51.946;10.558;2022-09-09T12:11:53;24.80;90.00
3190;DHT22;1606;51.946;10.558;2022-09-09T12:14:37;24.80;89.40
3190;DHT22;1606;51.946;10.558;2022-09-09T12:17:15;24.80;90.70
3190;DHT22;1606;51.946;10.558;2022-09-09T12:19:46;25.00;90.80
3190;DHT22;1606;51.946;10.558;2022-09-09T12:22:23;25.20;90.60
3190;DHT22;1606;51.946;10.558;2022-09-09T12:24:58;25.40;91.60
3190;DHT22;1606;51.946;10.558;2022-09-09T12:27:33;25.80;91.10
3190;DHT22;1606;51.946;10.558;2022-09-09T12:30:09;26.20;90.50
3190;DHT22;1606;51.946;10.558;2022-09-09T12:32:38;26.10;86.90
3190;DHT22;1606;51.946;10.558;2022-09-09T12:35:11;26.10;84.30
3190;DHT22;1606;51.946;10.558;2022-09-09T12:37:42;26.10;85.60
3190;DHT22;1606;51.946;10.558;2022-09-09T12:40:21;26.00;87.70
3190;DHT22;1606;51.946;10.558;2022-09-09T12:42:50;26.00;86.80
3190;DHT22;1606;51.946;10.558;2022-09-09T12:45:20;26.10;86.70
3190;DHT22;1606;51.946;10.558;2022-09-09T12:47:55;26.10;89.00
3190;DHT22;1606;51.946;10.558;2022-09-09T12:50:27;26.00;86.40
3190;DHT22;1606;51.946;10.558;2022-09-09T12:52:58;25.80;87.50
3190;DHT22;1606;51.946;10.558;2022-09-09T12:55:28;26.10;86.80
3190;DHT22;1606;51.946;10.558;2022-09-09T12:57:57;26.10;82.80
3190;DHT22;1606;51.946;10.558;2022-09-09T13:00:28;26.20;83.90
3190;DHT22;1606;51.946;10.558;2022-09-09T13:02:58;26.40;82.40
3190;DHT22;1606;51.946;10.558;2022-09-09T13:05:33;26.80;81.10
3190;DHT22;1606;51.946;10.558;2022-09-09T13:08:02;26.80;79.70
3190;DHT22;1606;51.946;10.558;2022-09-09T13:10:34;26.90;80.40
3190;DHT22;1606;51.946;10.558;2022-09-09T13:13:22;26.90;78.20
3190;DHT22;1606;51.946;10.558;2022-09-09T13:15:54;27.00;79.30
3190;DHT22;1606;51.946;10.558;2022-09-09T13:18:23;26.90;78.20
3190;DHT22;1606;51.946;10.558;2022-09-09T13:20:52;26.60;78.70
3190;DHT22;1606;51.946;10.558;2022-09-09T13:23:21;26.30;79.10
3190;DHT22;1606;51.946;10.558;2022-09-09T13:25:54;26.00;78.20
3190;DHT22;1606;51.946;10.558;2022-09-09T13:28:24;25.90;79.90
3190;DHT22;1606;51.946;10.558;2022-09-09T13:30:58;25.80;79.50
3190;DHT22;1606;51.946;10.558;2022-09-09T13:33:31;25.50;80.20
3190;DHT22;1606;51.946;10.558;2022-09-09T13:36:01;25.60;79.60
3190;DHT22;1606;51.946;10.558;2022-09-09T13:38:33;25.60;80.10
3190;DHT22;1606;51.946;10.558;2022-09-09T13:41:03;25.50;80.10
3190;DHT22;1606;51.946;10.558;2022-09-09T13:43:34;25.60;83.00
3190;DHT22;1606;51.946;10.558;2022-09-09T13:46:24;25.90;77.70
3190;DHT22;1606;51.946;10.558;2022-09-09T13:48:56;26.10;77.10
3190;DHT22;1606;51.946;10.558;2022-09-09T13:51:32;26.30;75.50
3190;DHT22;1606;51.946;10.558;2022-09-09T13:54:01;26.50;76.40
3190;DHT22;1606;51.946;10.558;2022-09-09T13:56:29;26.60;75.50
3190;DHT22;1606;51.946;10.558;2022-09-09T13:58:56;26.60;76.30
3190;DHT22;1606;51.946;10.558;2022-09-09T14:01:26;26.50;73.90
3190;DHT22;1606;51.946;10.558;2022-09-09T14:03:55;26.40;74.30
3190;DHT22;1606;51.946;10.558;2022-09-09T14:06:23;26.30;73.80
3190;DHT22;1606;51.946;10.558;2022-09-09T14:08:51;26.20;72.70
3190;DHT22;1606;51.946;10.558;2022-09-09T14:11:22;26.20;73.30
3190;DHT22;1606;51.946;10.558;2022-09-09T14:13:49;25.70;73.60
3190;DHT22;1606;51.946;10.558;2022-09-09T14:16:18;25.60;76.70
3190;DHT22;1606;51.946;10.558;2022-09-09T14:18:47;25.60;75.60
3190;DHT22;1606;51.946;10.558;2022-09-09T14:21:15;25.60;74.30
3190;DHT22;1606;51.946;10.558;2022-09-09T14:23:43;25.30;74.40
3190;DHT22;1606;51.946;10.558;2022-09-09T14:26:11;25.30;74.90
3190;DHT22;1606;51.946;10.558;2022-09-09T14:28:39;25.60;75.70
3190;DHT22;1606;51.946;10.558;2022-09-09T14:31:21;25.50;75.40
3190;DHT22;1606;51.946;10.558;2022-09-09T14:33:50;24.90;77.60
3190;DHT22;1606;51.946;10.558;2022-09-09T14:36:19;25.00;77.80
3190;DHT22;1606;51.946;10.558;2022-09-09T14:38:47;25.00;78.10
3190;DHT22;1606;51.946;10.558;2022-09-09T14:41:16;25.00;79.20
3190;DHT22;1606;51.946;10.558;2022-09-09T14:43:45;24.90;78.40
3190;DHT22;1606;51.946;10.558;2022-09-09T14:46:15;24.80;79.60
3190;DHT22;1606;51.946;10.558;2022-09-09T14:48:43;24.90;79.10
3190;DHT22;1606;51.946;10.558;2022-09-09T14:51:15;25.00;80.00
3190;DHT22;1606;51.946;10.558;2022-09-09T14:53:44;25.50;80.50
3190;DHT22;1606;51.946;10.558;2022-09-09T14:56:14;25.60;79.90
3190;DHT22;1606;51.946;10.558;2022-09-09T14:58:42;26.00;79.80
3190;DHT22;1606;51.946;10.558;2022-09-09T15:01:13;26.00;78.20
3190;DHT22;1606;51.946;10.558;2022-09-09T15:03:43;26.10;78.40
3190;DHT22;1606;51.946;10.558;2022-09-09T15:06:14;26.30;79.10
3190;DHT22;1606;51.946;10.558;2022-09-09T15:08:43;25.90;76.60
3190;DHT22;1606;51.946;10.558;2022-09-09T15:11:12;25.70;77.80
3190;DHT22;1606;51.946;10.558;2022-09-09T15:13:42;25.80;77.70
3190;DHT22;1606;51.946;10.558;2022-09-09T15:16:11;25.90;75.90
3190;DHT22;1606;51.946;10.558;2022-09-09T15:18:40;26.00;77.20
3190;DHT22;1606;51.946;10.558;2022-09-09T15:21:09;25.80;78.10
3190;DHT22;1606;51.946;10.558;2022-09-09T15:23:38;25.80;76.20
3190;DHT22;1606;51.946;10.558;2022-09-09T15:26:07;25.90;77.60
3190;DHT22;1606;51.946;10.558;2022-09-09T15:28:36;26.10;76.40
3190;DHT22;1606;51.946;10.558;2022-09-09T15:31:06;26.20;74.70
3190;DHT22;1606;51.946;10.558;2022-09-09T15:33:34;25.90;76.10
3190;DHT22;1606;51.946;10.558;2022-09-09T15:36:13;25.90;76.70
3190;DHT22;1606;51.946;10.558;2022-09-09T15:38:42;25.70;77.80
3190;DHT22;1606;51.946;10.558;2022-09-09T15:41:10;25.50;75.60
3190;DHT22;1606;51.946;10.558;2022-09-09T15:43:39;25.30;74.50
3190;DHT22;1606;51.946;10.558;2022-09-09T15:46:22;25.30;73.10
3190;DHT22;1606;51.946;10.558;2022-09-09T15:48:53;25.40;73.20
3190;DHT22;1606;51.946;10.558;2022-09-09T15:51:23;25.50;71.50
3190;DHT22;1606;51.946;10.558;2022-09-09T15:54:12;25.20;72.80
3190;DHT22;1606;51.946;10.558;2022-09-09T15:56:41;25.20;71.70
3190;DHT22;1606;51.946;10.558;2022-09-09T15:59:09;24.90;72.30
3190;DHT22;1606;51.946;10.558;2022-09-09T16:01:38;24.70;72.60
3190;DHT22;1606;51.946;10.558;2022-09-09T16:04:07;24.50;72.40
3190;DHT22;1606;51.946;10.558;2022-09-09T16:06:35;24.40;73.10
3190;DHT22;1606;51.946;10.558;2022-09-09T16:09:05;24.50;76.10
3190;DHT22;1606;51.946;10.558;2022-09-09T16:11:35;24.40;74.70
3190;DHT22;1606;51.946;10.558;2022-09-09T16:14:04;24.30;75.60
3190;DHT22;1606;51.946;10.558;2022-09-09T16:16:33;24.20;76.00
3190;DHT22;1606;51.946;10.558;2022-09-09T16:19:04;24.00;76.80